Amsterdam, Montana
Current Conditions -  °F | °C
As of 2:56 PM on Monday 20 Oct 2014 (Local Time) from KBZN Reporting Station
Clear Clear  
Wind Chill: 75°   Ceiling: Unl
Heat Index: 75°   Visibility: 10mi
Dew Point: 32°   Wind: 3mph
Humidity: 21%   Direction: 60°ENE
Pressure: 29.88"   Gusts: NA
Location:  45.7517°N, 111.347°W
Report Text: KBZN 202056Z 06003KT 10SM CLR 24/00 A2988 RMK AO2 SLP101 T02390000 56029
Loading
Personal Weather Stations






























Interactive Weather Map New forecast layout! Learn more

10-Day Weather Forecast

Advertisements
Track Severe Weather on mobile